sensor_id;sensor_type;location;lat;lon;timestamp;P1;durP1;ratioP1;P2;durP2;ratioP2
19482;SDS011;9882;51.166;6.992;2024-02-14T00:01:08;12.32;;;3.00;;
19482;SDS011;9882;51.166;6.992;2024-02-14T00:03:37;4.00;;;2.58;;
19482;SDS011;9882;51.166;6.992;2024-02-14T00:06:07;4.80;;;2.55;;
19482;SDS011;9882;51.166;6.992;2024-02-14T00:08:39;4.80;;;2.80;;
19482;SDS011;9882;51.166;6.992;2024-02-14T00:11:13;5.90;;;2.70;;
19482;SDS011;9882;51.166;6.992;2024-02-14T00:13:46;6.10;;;2.75;;
19482;SDS011;9882;51.166;6.992;2024-02-14T00:16:25;3.55;;;2.53;;
19482;SDS011;9882;51.166;6.992;2024-02-14T00:18:58;4.07;;;2.83;;
19482;SDS011;9882;51.166;6.992;2024-02-14T00:21:30;5.20;;;2.50;;
19482;SDS011;9882;51.166;6.992;2024-02-14T00:24:01;3.75;;;2.85;;
19482;SDS011;9882;51.166;6.992;2024-02-14T00:26:33;5.40;;;2.30;;
19482;SDS011;9882;51.166;6.992;2024-02-14T00:29:02;6.78;;;2.58;;
19482;SDS011;9882;51.166;6.992;2024-02-14T00:31:35;3.67;;;2.50;;
19482;SDS011;9882;51.166;6.992;2024-02-14T00:34:05;4.35;;;2.30;;
19482;SDS011;9882;51.166;6.992;2024-02-14T00:36:34;4.97;;;2.30;;
19482;SDS011;9882;51.166;6.992;2024-02-14T00:39:03;9.40;;;2.92;;
19482;SDS011;9882;51.166;6.992;2024-02-14T00:41:32;5.90;;;2.72;;
19482;SDS011;9882;51.166;6.992;2024-02-14T00:44:01;4.75;;;2.80;;
19482;SDS011;9882;51.166;6.992;2024-02-14T00:46:30;2.72;;;2.50;;
19482;SDS011;9882;51.166;6.992;2024-02-14T00:49:01;2.30;;;2.10;;
19482;SDS011;9882;51.166;6.992;2024-02-14T00:51:30;4.80;;;2.53;;
19482;SDS011;9882;51.166;6.992;2024-02-14T00:53:59;3.33;;;2.35;;
19482;SDS011;9882;51.166;6.992;2024-02-14T00:56:30;4.97;;;2.15;;
19482;SDS011;9882;51.166;6.992;2024-02-14T00:59:00;4.82;;;2.30;;
19482;SDS011;9882;51.166;6.992;2024-02-14T01:01:29;3.65;;;2.72;;
19482;SDS011;9882;51.166;6.992;2024-02-14T01:03:58;2.58;;;2.38;;
19482;SDS011;9882;51.166;6.992;2024-02-14T01:06:28;3.10;;;2.50;;
19482;SDS011;9882;51.166;6.992;2024-02-14T01:08:58;2.88;;;2.38;;
19482;SDS011;9882;51.166;6.992;2024-02-14T01:11:27;8.25;;;2.40;;
19482;SDS011;9882;51.166;6.992;2024-02-14T01:13:56;7.20;;;2.65;;
19482;SDS011;9882;51.166;6.992;2024-02-14T01:16:26;6.85;;;2.60;;
19482;SDS011;9882;51.166;6.992;2024-02-14T01:18:55;2.63;;;2.33;;
19482;SDS011;9882;51.166;6.992;2024-02-14T01:21:24;2.58;;;2.38;;
19482;SDS011;9882;51.166;6.992;2024-02-14T01:23:55;3.30;;;2.47;;
19482;SDS011;9882;51.166;6.992;2024-02-14T01:26:25;2.20;;;1.90;;
19482;SDS011;9882;51.166;6.992;2024-02-14T01:28:54;4.80;;;2.65;;
19482;SDS011;9882;51.166;6.992;2024-02-14T01:31:23;3.75;;;2.22;;
19482;SDS011;9882;51.166;6.992;2024-02-14T01:33:52;2.50;;;2.28;;
19482;SDS011;9882;51.166;6.992;2024-02-14T01:36:21;3.17;;;2.55;;
19482;SDS011;9882;51.166;6.992;2024-02-14T01:38:51;3.28;;;2.38;;
19482;SDS011;9882;51.166;6.992;2024-02-14T01:41:21;3.80;;;2.50;;
19482;SDS011;9882;51.166;6.992;2024-02-14T01:43:51;2.92;;;2.58;;
19482;SDS011;9882;51.166;6.992;2024-02-14T01:46:24;2.47;;;2.10;;
19482;SDS011;9882;51.166;6.992;2024-02-14T01:49:23;2.95;;;2.00;;
19482;SDS011;9882;51.166;6.992;2024-02-14T01:52:03;2.45;;;1.95;;
19482;SDS011;9882;51.166;6.992;2024-02-14T01:54:51;3.47;;;1.95;;
19482;SDS011;9882;51.166;6.992;2024-02-14T01:57:35;4.30;;;2.38;;
19482;SDS011;9882;51.166;6.992;2024-02-14T02:00:27;3.78;;;2.00;;
19482;SDS011;9882;51.166;6.992;2024-02-14T02:03:10;2.70;;;2.35;;
19482;SDS011;9882;51.166;6.992;2024-02-14T02:05:54;4.13;;;2.25;;
19482;SDS011;9882;51.166;6.992;2024-02-14T02:08:27;2.50;;;2.30;;
19482;SDS011;9882;51.166;6.992;2024-02-14T02:10:56;3.05;;;2.22;;
19482;SDS011;9882;51.166;6.992;2024-02-14T02:13:38;3.97;;;2.33;;
19482;SDS011;9882;51.166;6.992;2024-02-14T02:16:58;4.03;;;2.35;;
19482;SDS011;9882;51.166;6.992;2024-02-14T02:19:40;1.95;;;1.73;;
19482;SDS011;9882;51.166;6.992;2024-02-14T02:22:09;3.47;;;1.98;;
19482;SDS011;9882;51.166;6.992;2024-02-14T02:24:50;3.17;;;2.13;;
19482;SDS011;9882;51.166;6.992;2024-02-14T02:27:33;1.88;;;1.77;;
19482;SDS011;9882;51.166;6.992;2024-02-14T02:30:05;3.28;;;2.25;;
19482;SDS011;9882;51.166;6.992;2024-02-14T02:32:41;2.22;;;2.00;;
19482;SDS011;9882;51.166;6.992;2024-02-14T02:35:16;3.53;;;2.22;;
19482;SDS011;9882;51.166;6.992;2024-02-14T02:37:47;9.13;;;1.70;;
19482;SDS011;9882;51.166;6.992;2024-02-14T02:40:24;4.20;;;2.00;;
19482;SDS011;9882;51.166;6.992;2024-02-14T02:42:54;2.20;;;1.80;;
19482;SDS011;9882;51.166;6.992;2024-02-14T02:45:23;4.10;;;2.42;;
19482;SDS011;9882;51.166;6.992;2024-02-14T02:47:56;2.60;;;2.15;;
19482;SDS011;9882;51.166;6.992;2024-02-14T02:50:33;2.20;;;2.03;;
19482;SDS011;9882;51.166;6.992;2024-02-14T02:53:05;4.07;;;1.70;;
19482;SDS011;9882;51.166;6.992;2024-02-14T02:55:36;2.25;;;1.80;;
19482;SDS011;9882;51.166;6.992;2024-02-14T02:58:20;3.28;;;1.95;;
19482;SDS011;9882;51.166;6.992;2024-02-14T03:01:10;2.17;;;1.98;;
19482;SDS011;9882;51.166;6.992;2024-02-14T03:03:46;3.22;;;2.00;;
19482;SDS011;9882;51.166;6.992;2024-02-14T03:06:22;2.17;;;1.90;;
19482;SDS011;9882;51.166;6.992;2024-02-14T03:08:54;2.45;;;1.98;;
19482;SDS011;9882;51.166;6.992;2024-02-14T03:11:40;3.33;;;1.85;;
19482;SDS011;9882;51.166;6.992;2024-02-14T03:14:29;2.55;;;1.80;;
19482;SDS011;9882;51.166;6.992;2024-02-14T03:17:04;1.98;;;1.80;;
19482;SDS011;9882;51.166;6.992;2024-02-14T03:19:39;2.05;;;1.85;;
19482;SDS011;9882;51.166;6.992;2024-02-14T03:22:11;4.15;;;2.60;;
19482;SDS011;9882;51.166;6.992;2024-02-14T03:24:58;2.25;;;2.05;;
19482;SDS011;9882;51.166;6.992;2024-02-14T03:27:29;1.50;;;1.50;;
19482;SDS011;9882;51.166;6.992;2024-02-14T03:30:02;3.80;;;2.00;;
19482;SDS011;9882;51.166;6.992;2024-02-14T03:32:37;2.92;;;2.08;;
19482;SDS011;9882;51.166;6.992;2024-02-14T03:35:11;2.28;;;2.08;;
19482;SDS011;9882;51.166;6.992;2024-02-14T03:37:49;2.20;;;2.00;;
19482;SDS011;9882;51.166;6.992;2024-02-14T03:40:20;2.15;;;1.73;;
19482;SDS011;9882;51.166;6.992;2024-02-14T03:42:51;2.42;;;1.95;;
19482;SDS011;9882;51.166;6.992;2024-02-14T03:45:20;2.33;;;1.75;;
19482;SDS011;9882;51.166;6.992;2024-02-14T03:47:49;2.47;;;1.85;;
19482;SDS011;9882;51.166;6.992;2024-02-14T03:50:19;3.72;;;1.85;;
19482;SDS011;9882;51.166;6.992;2024-02-14T03:52:48;2.00;;;1.90;;
19482;SDS011;9882;51.166;6.992;2024-02-14T03:55:19;2.05;;;1.83;;
19482;SDS011;9882;51.166;6.992;2024-02-14T03:57:52;2.10;;;1.70;;
19482;SDS011;9882;51.166;6.992;2024-02-14T04:00:21;1.77;;;1.67;;
19482;SDS011;9882;51.166;6.992;2024-02-14T04:02:51;2.13;;;1.92;;
19482;SDS011;9882;51.166;6.992;2024-02-14T04:05:41;1.95;;;1.85;;
19482;SDS011;9882;51.166;6.992;2024-02-14T04:08:30;2.85;;;2.20;;
19482;SDS011;9882;51.166;6.992;2024-02-14T04:11:25;1.73;;;1.63;;
19482;SDS011;9882;51.166;6.992;2024-02-14T04:14:08;2.30;;;1.30;;
19482;SDS011;9882;51.166;6.992;2024-02-14T04:16:54;2.45;;;1.85;;
19482;SDS011;9882;51.166;6.992;2024-02-14T04:19:26;1.58;;;1.48;;
19482;SDS011;9882;51.166;6.992;2024-02-14T04:21:56;2.35;;;2.03;;
19482;SDS011;9882;51.166;6.992;2024-02-14T04:24:25;2.00;;;1.90;;
19482;SDS011;9882;51.166;6.992;2024-02-14T04:27:01;1.88;;;1.77;;
19482;SDS011;9882;51.166;6.992;2024-02-14T04:29:34;1.58;;;1.50;;
19482;SDS011;9882;51.166;6.992;2024-02-14T04:32:05;5.10;;;1.70;;
19482;SDS011;9882;51.166;6.992;2024-02-14T04:34:42;3.35;;;2.20;;
19482;SDS011;9882;51.166;6.992;2024-02-14T04:37:17;2.75;;;1.67;;
19482;SDS011;9882;51.166;6.992;2024-02-14T04:39:47;2.30;;;1.88;;
19482;SDS011;9882;51.166;6.992;2024-02-14T04:42:17;1.70;;;1.60;;
19482;SDS011;9882;51.166;6.992;2024-02-14T04:44:51;1.55;;;1.52;;
19482;SDS011;9882;51.166;6.992;2024-02-14T04:47:21;2.42;;;1.83;;
19482;SDS011;9882;51.166;6.992;2024-02-14T04:49:51;2.20;;;2.00;;
19482;SDS011;9882;51.166;6.992;2024-02-14T04:52:20;2.35;;;1.85;;
19482;SDS011;9882;51.166;6.992;2024-02-14T04:54:50;1.80;;;1.70;;
19482;SDS011;9882;51.166;6.992;2024-02-14T04:57:22;4.57;;;1.92;;
19482;SDS011;9882;51.166;6.992;2024-02-14T04:59:52;2.38;;;2.17;;
19482;SDS011;9882;51.166;6.992;2024-02-14T05:02:21;1.80;;;1.70;;
19482;SDS011;9882;51.166;6.992;2024-02-14T05:04:50;1.73;;;1.63;;
19482;SDS011;9882;51.166;6.992;2024-02-14T05:07:20;2.83;;;2.00;;
19482;SDS011;9882;51.166;6.992;2024-02-14T05:09:49;2.88;;;2.20;;
19482;SDS011;9882;51.166;6.992;2024-02-14T05:12:19;2.58;;;1.98;;
19482;SDS011;9882;51.166;6.992;2024-02-14T05:14:48;1.83;;;1.73;;
19482;SDS011;9882;51.166;6.992;2024-02-14T05:17:19;1.55;;;1.55;;
19482;SDS011;9882;51.166;6.992;2024-02-14T05:19:48;4.07;;;1.98;;
19482;SDS011;9882;51.166;6.992;2024-02-14T05:22:21;1.70;;;1.60;;
19482;SDS011;9882;51.166;6.992;2024-02-14T05:24:50;2.22;;;1.60;;
19482;SDS011;9882;51.166;6.992;2024-02-14T05:27:19;3.03;;;1.98;;
19482;SDS011;9882;51.166;6.992;2024-02-14T05:29:54;1.80;;;1.70;;
19482;SDS011;9882;51.166;6.992;2024-02-14T05:32:25;3.10;;;2.00;;
19482;SDS011;9882;51.166;6.992;2024-02-14T05:34:55;2.13;;;1.90;;
19482;SDS011;9882;51.166;6.992;2024-02-14T05:37:24;4.00;;;2.22;;
19482;SDS011;9882;51.166;6.992;2024-02-14T05:39:54;2.00;;;1.85;;
19482;SDS011;9882;51.166;6.992;2024-02-14T05:42:23;2.80;;;2.20;;
19482;SDS011;9882;51.166;6.992;2024-02-14T05:44:52;2.83;;;1.92;;
19482;SDS011;9882;51.166;6.992;2024-02-14T05:47:22;2.90;;;2.05;;
19482;SDS011;9882;51.166;6.992;2024-02-14T05:49:54;1.98;;;1.77;;
19482;SDS011;9882;51.166;6.992;2024-02-14T05:52:23;4.00;;;2.30;;
19482;SDS011;9882;51.166;6.992;2024-02-14T05:54:52;1.95;;;1.85;;
19482;SDS011;9882;51.166;6.992;2024-02-14T05:57:22;4.80;;;2.03;;
19482;SDS011;9882;51.166;6.992;2024-02-14T05:59:51;2.38;;;2.00;;
19482;SDS011;9882;51.166;6.992;2024-02-14T06:02:20;2.63;;;2.28;;
19482;SDS011;9882;51.166;6.992;2024-02-14T06:04:49;2.60;;;1.88;;
19482;SDS011;9882;51.166;6.992;2024-02-14T06:07:22;2.28;;;2.08;;
19482;SDS011;9882;51.166;6.992;2024-02-14T06:09:54;2.00;;;1.90;;
19482;SDS011;9882;51.166;6.992;2024-02-14T06:16:48;1.90;;;1.77;;
19482;SDS011;9882;51.166;6.992;2024-02-14T06:20:15;1.75;;;1.65;;
19482;SDS011;9882;51.166;6.992;2024-02-14T06:26:18;1.98;;;1.88;;
19482;SDS011;9882;51.166;6.992;2024-02-14T06:29:08;5.18;;;2.30;;
19482;SDS011;9882;51.166;6.992;2024-02-14T06:31:56;3.38;;;2.00;;
19482;SDS011;9882;51.166;6.992;2024-02-14T06:34:38;2.15;;;1.95;;
19482;SDS011;9882;51.166;6.992;2024-02-14T06:51:55;4.53;;;2.42;;
19482;SDS011;9882;51.166;6.992;2024-02-14T06:54:51;2.30;;;2.10;;
19482;SDS011;9882;51.166;6.992;2024-02-14T06:57:51;3.22;;;2.05;;
19482;SDS011;9882;51.166;6.992;2024-02-14T07:00:56;1.90;;;1.80;;
19482;SDS011;9882;51.166;6.992;2024-02-14T07:06:55;2.55;;;1.95;;
19482;SDS011;9882;51.166;6.992;2024-02-14T07:09:29;2.22;;;2.03;;
19482;SDS011;9882;51.166;6.992;2024-02-14T07:12:16;4.78;;;2.20;;
19482;SDS011;9882;51.166;6.992;2024-02-14T07:15:01;6.20;;;2.50;;
19482;SDS011;9882;51.166;6.992;2024-02-14T07:17:37;1.80;;;1.70;;
19482;SDS011;9882;51.166;6.992;2024-02-14T07:37:06;2.95;;;2.35;;
19482;SDS011;9882;51.166;6.992;2024-02-14T07:54:54;11.10;;;3.22;;
19482;SDS011;9882;51.166;6.992;2024-02-14T07:57:27;6.00;;;2.42;;
19482;SDS011;9882;51.166;6.992;2024-02-14T08:00:01;2.97;;;2.33;;
19482;SDS011;9882;51.166;6.992;2024-02-14T08:02:55;5.60;;;2.70;;
19482;SDS011;9882;51.166;6.992;2024-02-14T08:05:40;2.88;;;2.17;;
19482;SDS011;9882;51.166;6.992;2024-02-14T08:08:16;4.70;;;2.50;;
19482;SDS011;9882;51.166;6.992;2024-02-14T08:10:49;3.40;;;2.40;;
19482;SDS011;9882;51.166;6.992;2024-02-14T08:13:19;2.53;;;2.22;;
19482;SDS011;9882;51.166;6.992;2024-02-14T08:15:52;18.85;;;2.88;;
19482;SDS011;9882;51.166;6.992;2024-02-14T08:18:37;4.40;;;2.38;;
19482;SDS011;9882;51.166;6.992;2024-02-14T08:21:06;5.93;;;2.60;;
19482;SDS011;9882;51.166;6.992;2024-02-14T08:23:36;3.67;;;2.67;;
19482;SDS011;9882;51.166;6.992;2024-02-14T08:26:19;3.17;;;2.60;;
19482;SDS011;9882;51.166;6.992;2024-02-14T08:29:04;3.72;;;2.33;;
19482;SDS011;9882;51.166;6.992;2024-02-14T08:31:41;3.08;;;2.47;;
19482;SDS011;9882;51.166;6.992;2024-02-14T08:34:17;4.70;;;2.55;;
19482;SDS011;9882;51.166;6.992;2024-02-14T08:37:08;5.18;;;2.22;;
19482;SDS011;9882;51.166;6.992;2024-02-14T08:49:39;3.53;;;2.30;;
19482;SDS011;9882;51.166;6.992;2024-02-14T08:52:14;4.88;;;2.70;;
19482;SDS011;9882;51.166;6.992;2024-02-14T08:54:45;5.65;;;2.53;;
19482;SDS011;9882;51.166;6.992;2024-02-14T08:57:24;3.55;;;2.72;;
19482;SDS011;9882;51.166;6.992;2024-02-14T08:59:59;4.75;;;2.80;;
19482;SDS011;9882;51.166;6.992;2024-02-14T09:02:30;7.28;;;2.75;;
19482;SDS011;9882;51.166;6.992;2024-02-14T09:05:22;6.78;;;2.80;;
19482;SDS011;9882;51.166;6.992;2024-02-14T09:08:18;3.97;;;2.60;;
19482;SDS011;9882;51.166;6.992;2024-02-14T09:11:15;3.35;;;2.33;;
19482;SDS011;9882;51.166;6.992;2024-02-14T09:13:44;2.70;;;2.50;;
19482;SDS011;9882;51.166;6.992;2024-02-14T09:16:23;3.80;;;2.78;;
19482;SDS011;9882;51.166;6.992;2024-02-14T09:19:13;3.72;;;2.83;;
19482;SDS011;9882;51.166;6.992;2024-02-14T09:24:27;5.55;;;2.95;;
19482;SDS011;9882;51.166;6.992;2024-02-14T09:26:59;3.83;;;2.45;;
19482;SDS011;9882;51.166;6.992;2024-02-14T09:29:30;3.97;;;2.85;;
19482;SDS011;9882;51.166;6.992;2024-02-14T09:31:59;9.13;;;2.75;;
19482;SDS011;9882;51.166;6.992;2024-02-14T09:34:30;4.00;;;2.50;;
19482;SDS011;9882;51.166;6.992;2024-02-14T09:37:34;6.15;;;2.67;;
19482;SDS011;9882;51.166;6.992;2024-02-14T09:53:17;6.15;;;2.50;;
19482;SDS011;9882;51.166;6.992;2024-02-14T09:57:01;4.30;;;1.95;;
19482;SDS011;9882;51.166;6.992;2024-02-14T09:59:38;4.05;;;2.58;;
19482;SDS011;9882;51.166;6.992;2024-02-14T10:02:20;5.30;;;2.72;;
19482;SDS011;9882;51.166;6.992;2024-02-14T10:09:01;3.33;;;2.40;;
19482;SDS011;9882;51.166;6.992;2024-02-14T10:11:33;3.47;;;2.22;;
19482;SDS011;9882;51.166;6.992;2024-02-14T10:14:08;2.30;;;2.00;;
19482;SDS011;9882;51.166;6.992;2024-02-14T10:19:55;4.55;;;2.17;;
19482;SDS011;9882;51.166;6.992;2024-02-14T10:22:32;2.20;;;1.98;;
19482;SDS011;9882;51.166;6.992;2024-02-14T10:25:04;3.50;;;1.92;;
19482;SDS011;9882;51.166;6.992;2024-02-14T10:27:36;3.10;;;1.67;;
19482;SDS011;9882;51.166;6.992;2024-02-14T10:30:09;4.80;;;2.22;;
19482;SDS011;9882;51.166;6.992;2024-02-14T10:32:42;3.25;;;1.63;;
19482;SDS011;9882;51.166;6.992;2024-02-14T10:35:16;4.38;;;1.92;;
19482;SDS011;9882;51.166;6.992;2024-02-14T10:37:49;2.42;;;2.10;;
19482;SDS011;9882;51.166;6.992;2024-02-14T10:46:26;2.67;;;1.63;;
19482;SDS011;9882;51.166;6.992;2024-02-14T10:52:43;1.92;;;1.73;;
19482;SDS011;9882;51.166;6.992;2024-02-14T10:55:16;2.75;;;1.42;;
19482;SDS011;9882;51.166;6.992;2024-02-14T10:57:47;3.60;;;1.70;;
19482;SDS011;9882;51.166;6.992;2024-02-14T11:00:19;4.88;;;1.90;;
19482;SDS011;9882;51.166;6.992;2024-02-14T11:02:54;3.70;;;1.65;;
19482;SDS011;9882;51.166;6.992;2024-02-14T11:05:24;3.22;;;1.95;;
19482;SDS011;9882;51.166;6.992;2024-02-14T11:07:53;1.63;;;1.52;;
19482;SDS011;9882;51.166;6.992;2024-02-14T11:10:24;1.52;;;1.42;;
19482;SDS011;9882;51.166;6.992;2024-02-14T11:12:56;1.63;;;1.52;;
19482;SDS011;9882;51.166;6.992;2024-02-14T11:15:28;1.60;;;1.50;;
19482;SDS011;9882;51.166;6.992;2024-02-14T11:18:05;3.20;;;2.17;;
19482;SDS011;9882;51.166;6.992;2024-02-14T11:20:36;2.40;;;1.60;;
19482;SDS011;9882;51.166;6.992;2024-02-14T11:23:07;1.73;;;1.63;;
19482;SDS011;9882;51.166;6.992;2024-02-14T11:25:40;1.88;;;1.65;;
19482;SDS011;9882;51.166;6.992;2024-02-14T11:28:12;1.52;;;1.48;;
19482;SDS011;9882;51.166;6.992;2024-02-14T11:30:45;5.03;;;1.90;;
19482;SDS011;9882;51.166;6.992;2024-02-14T11:33:18;1.70;;;1.60;;
19482;SDS011;9882;51.166;6.992;2024-02-14T11:35:49;3.42;;;1.50;;
19482;SDS011;9882;51.166;6.992;2024-02-14T11:38:20;3.33;;;2.15;;
19482;SDS011;9882;51.166;6.992;2024-02-14T11:40:51;1.80;;;1.70;;
19482;SDS011;9882;51.166;6.992;2024-02-14T11:43:24;1.92;;;1.77;;
19482;SDS011;9882;51.166;6.992;2024-02-14T11:45:53;5.78;;;1.83;;
19482;SDS011;9882;51.166;6.992;2024-02-14T11:48:24;1.98;;;1.77;;
19482;SDS011;9882;51.166;6.992;2024-02-14T11:50:56;2.45;;;1.92;;
19482;SDS011;9882;51.166;6.992;2024-02-14T11:53:27;7.35;;;1.92;;
19482;SDS011;9882;51.166;6.992;2024-02-14T11:55:57;1.80;;;1.70;;
19482;SDS011;9882;51.166;6.992;2024-02-14T11:58:26;5.88;;;1.80;;
19482;SDS011;9882;51.166;6.992;2024-02-14T12:00:55;2.28;;;1.80;;
19482;SDS011;9882;51.166;6.992;2024-02-14T12:03:26;5.53;;;1.90;;
19482;SDS011;9882;51.166;6.992;2024-02-14T12:17:55;4.15;;;1.92;;
19482;SDS011;9882;51.166;6.992;2024-02-14T12:20:35;5.63;;;2.38;;
19482;SDS011;9882;51.166;6.992;2024-02-14T12:23:13;2.05;;;1.80;;
19482;SDS011;9882;51.166;6.992;2024-02-14T12:29:12;2.60;;;1.73;;
19482;SDS011;9882;51.166;6.992;2024-02-14T12:31:41;1.70;;;1.58;;
19482;SDS011;9882;51.166;6.992;2024-02-14T12:34:21;3.95;;;2.40;;
19482;SDS011;9882;51.166;6.992;2024-02-14T12:36:53;2.70;;;2.03;;
19482;SDS011;9882;51.166;6.992;2024-02-14T12:39:22;2.00;;;1.73;;
19482;SDS011;9882;51.166;6.992;2024-02-14T12:41:53;2.03;;;1.73;;
19482;SDS011;9882;51.166;6.992;2024-02-14T12:44:22;1.70;;;1.60;;
19482;SDS011;9882;51.166;6.992;2024-02-14T12:46:51;1.30;;;1.30;;
19482;SDS011;9882;51.166;6.992;2024-02-14T12:49:21;3.25;;;1.95;;
19482;SDS011;9882;51.166;6.992;2024-02-14T12:51:54;2.35;;;2.00;;
19482;SDS011;9882;51.166;6.992;2024-02-14T12:54:24;1.80;;;1.70;;
19482;SDS011;9882;51.166;6.992;2024-02-14T12:56:53;2.05;;;1.73;;
19482;SDS011;9882;51.166;6.992;2024-02-14T12:59:24;3.65;;;2.08;;
19482;SDS011;9882;51.166;6.992;2024-02-14T13:02:01;2.22;;;2.00;;
19482;SDS011;9882;51.166;6.992;2024-02-14T13:04:35;3.70;;;1.70;;
19482;SDS011;9882;51.166;6.992;2024-02-14T13:07:09;1.70;;;1.60;;
19482;SDS011;9882;51.166;6.992;2024-02-14T13:09:41;1.80;;;1.70;;
19482;SDS011;9882;51.166;6.992;2024-02-14T13:12:11;1.77;;;1.67;;
19482;SDS011;9882;51.166;6.992;2024-02-14T13:14:41;2.30;;;2.10;;
19482;SDS011;9882;51.166;6.992;2024-02-14T13:17:12;1.83;;;1.73;;
19482;SDS011;9882;51.166;6.992;2024-02-14T13:19:43;2.05;;;1.60;;
19482;SDS011;9882;51.166;6.992;2024-02-14T13:22:18;1.67;;;1.58;;
19482;SDS011;9882;51.166;6.992;2024-02-14T13:24:52;4.32;;;1.90;;
19482;SDS011;9882;51.166;6.992;2024-02-14T13:27:38;1.60;;;1.50;;
19482;SDS011;9882;51.166;6.992;2024-02-14T13:30:08;4.97;;;1.75;;
19482;SDS011;9882;51.166;6.992;2024-02-14T13:32:38;2.22;;;1.60;;
19482;SDS011;9882;51.166;6.992;2024-02-14T13:35:12;1.70;;;1.60;;
19482;SDS011;9882;51.166;6.992;2024-02-14T13:40:52;3.85;;;2.47;;
19482;SDS011;9882;51.166;6.992;2024-02-14T13:43:32;5.28;;;1.90;;
19482;SDS011;9882;51.166;6.992;2024-02-14T13:46:01;1.65;;;1.55;;
19482;SDS011;9882;51.166;6.992;2024-02-14T13:48:29;2.80;;;1.95;;
19482;SDS011;9882;51.166;6.992;2024-02-14T13:50:58;1.63;;;1.48;;
19482;SDS011;9882;51.166;6.992;2024-02-14T13:53:28;2.45;;;1.98;;
19482;SDS011;9882;51.166;6.992;2024-02-14T13:59:06;1.77;;;1.67;;
19482;SDS011;9882;51.166;6.992;2024-02-14T14:01:38;1.92;;;1.50;;
19482;SDS011;9882;51.166;6.992;2024-02-14T14:04:25;2.10;;;1.77;;
19482;SDS011;9882;51.166;6.992;2024-02-14T14:19:58;1.88;;;1.77;;
19482;SDS011;9882;51.166;6.992;2024-02-14T14:22:31;2.28;;;2.08;;
19482;SDS011;9882;51.166;6.992;2024-02-14T14:25:01;3.92;;;1.67;;
19482;SDS011;9882;51.166;6.992;2024-02-14T14:27:31;2.90;;;1.65;;
19482;SDS011;9882;51.166;6.992;2024-02-14T14:30:01;1.77;;;1.67;;
19482;SDS011;9882;51.166;6.992;2024-02-14T14:32:32;2.08;;;1.73;;
19482;SDS011;9882;51.166;6.992;2024-02-14T14:35:05;1.67;;;1.55;;
19482;SDS011;9882;51.166;6.992;2024-02-14T14:37:34;1.50;;;1.40;;
19482;SDS011;9882;51.166;6.992;2024-02-14T14:40:06;3.75;;;2.30;;
19482;SDS011;9882;51.166;6.992;2024-02-14T14:42:38;2.10;;;1.90;;
19482;SDS011;9882;51.166;6.992;2024-02-14T14:46:21;2.00;;;1.67;;
19482;SDS011;9882;51.166;6.992;2024-02-14T14:48:55;2.28;;;1.75;;
19482;SDS011;9882;51.166;6.992;2024-02-14T14:51:26;5.40;;;2.58;;
19482;SDS011;9882;51.166;6.992;2024-02-14T14:54:09;1.98;;;1.80;;
19482;SDS011;9882;51.166;6.992;2024-02-14T14:56:52;3.35;;;1.77;;
19482;SDS011;9882;51.166;6.992;2024-02-14T14:59:30;3.10;;;1.77;;
19482;SDS011;9882;51.166;6.992;2024-02-14T15:02:02;6.15;;;1.92;;
19482;SDS011;9882;51.166;6.992;2024-02-14T15:04:34;2.25;;;2.05;;
19482;SDS011;9882;51.166;6.992;2024-02-14T15:07:15;2.22;;;1.58;;
19482;SDS011;9882;51.166;6.992;2024-02-14T15:09:47;2.00;;;1.83;;
19482;SDS011;9882;51.166;6.992;2024-02-14T15:12:16;3.70;;;2.25;;
19482;SDS011;9882;51.166;6.992;2024-02-14T15:14:46;4.05;;;2.05;;
19482;SDS011;9882;51.166;6.992;2024-02-14T15:17:15;2.10;;;1.90;;
19482;SDS011;9882;51.166;6.992;2024-02-14T15:19:44;2.00;;;1.80;;
19482;SDS011;9882;51.166;6.992;2024-02-14T15:22:23;3.15;;;1.90;;
19482;SDS011;9882;51.166;6.992;2024-02-14T15:24:55;4.03;;;2.20;;
19482;SDS011;9882;51.166;6.992;2024-02-14T15:27:24;2.47;;;2.20;;
19482;SDS011;9882;51.166;6.992;2024-02-14T15:29:56;2.13;;;1.77;;
19482;SDS011;9882;51.166;6.992;2024-02-14T15:32:42;1.83;;;1.73;;
19482;SDS011;9882;51.166;6.992;2024-02-14T15:35:28;2.63;;;1.95;;
19482;SDS011;9882;51.166;6.992;2024-02-14T15:37:59;3.05;;;2.17;;
19482;SDS011;9882;51.166;6.992;2024-02-14T15:40:28;2.75;;;2.33;;
19482;SDS011;9882;51.166;6.992;2024-02-14T15:43:00;2.08;;;1.88;;
19482;SDS011;9882;51.166;6.992;2024-02-14T15:45:30;2.30;;;2.10;;
19482;SDS011;9882;51.166;6.992;2024-02-14T15:48:00;2.05;;;1.85;;
19482;SDS011;9882;51.166;6.992;2024-02-14T15:50:29;2.45;;;2.20;;
19482;SDS011;9882;51.166;6.992;2024-02-14T15:53:00;2.80;;;1.95;;
19482;SDS011;9882;51.166;6.992;2024-02-14T15:55:29;3.38;;;2.28;;
19482;SDS011;9882;51.166;6.992;2024-02-14T15:57:59;2.15;;;1.98;;
19482;SDS011;9882;51.166;6.992;2024-02-14T16:00:28;2.25;;;2.00;;
19482;SDS011;9882;51.166;6.992;2024-02-14T16:02:58;4.45;;;2.60;;
19482;SDS011;9882;51.166;6.992;2024-02-14T16:05:29;5.05;;;2.70;;
19482;SDS011;9882;51.166;6.992;2024-02-14T16:07:58;8.38;;;3.17;;
19482;SDS011;9882;51.166;6.992;2024-02-14T16:10:29;3.90;;;2.83;;
19482;SDS011;9882;51.166;6.992;2024-02-14T16:12:58;2.90;;;2.55;;
19482;SDS011;9882;51.166;6.992;2024-02-14T16:15:28;5.85;;;3.03;;
19482;SDS011;9882;51.166;6.992;2024-02-14T16:18:01;4.18;;;2.60;;
19482;SDS011;9882;51.166;6.992;2024-02-14T16:20:31;2.92;;;2.40;;
19482;SDS011;9882;51.166;6.992;2024-02-14T16:23:01;3.67;;;3.20;;
19482;SDS011;9882;51.166;6.992;2024-02-14T16:25:32;2.92;;;2.47;;
19482;SDS011;9882;51.166;6.992;2024-02-14T16:28:05;5.60;;;3.20;;
19482;SDS011;9882;51.166;6.992;2024-02-14T16:30:34;4.80;;;3.10;;
19482;SDS011;9882;51.166;6.992;2024-02-14T16:33:06;6.93;;;3.22;;
19482;SDS011;9882;51.166;6.992;2024-02-14T16:36:04;5.60;;;3.03;;
19482;SDS011;9882;51.166;6.992;2024-02-14T16:38:36;6.10;;;3.30;;
19482;SDS011;9882;51.166;6.992;2024-02-14T16:41:05;4.95;;;2.67;;
19482;SDS011;9882;51.166;6.992;2024-02-14T16:43:35;8.38;;;3.35;;
19482;SDS011;9882;51.166;6.992;2024-02-14T16:46:07;5.47;;;3.10;;
19482;SDS011;9882;51.166;6.992;2024-02-14T16:48:36;6.93;;;3.22;;
19482;SDS011;9882;51.166;6.992;2024-02-14T16:51:05;9.82;;;3.97;;
19482;SDS011;9882;51.166;6.992;2024-02-14T16:53:38;5.05;;;2.90;;
19482;SDS011;9882;51.166;6.992;2024-02-14T16:56:08;4.57;;;2.95;;
19482;SDS011;9882;51.166;6.992;2024-02-14T16:58:37;6.32;;;3.35;;
19482;SDS011;9882;51.166;6.992;2024-02-14T17:01:06;8.73;;;3.75;;
19482;SDS011;9882;51.166;6.992;2024-02-14T17:03:36;6.03;;;3.22;;
19482;SDS011;9882;51.166;6.992;2024-02-14T17:06:06;5.22;;;3.20;;
19482;SDS011;9882;51.166;6.992;2024-02-14T17:08:44;5.43;;;3.28;;
19482;SDS011;9882;51.166;6.992;2024-02-14T17:11:13;7.00;;;3.25;;
19482;SDS011;9882;51.166;6.992;2024-02-14T17:13:47;5.45;;;3.38;;
19482;SDS011;9882;51.166;6.992;2024-02-14T17:16:16;4.22;;;2.90;;
19482;SDS011;9882;51.166;6.992;2024-02-14T17:18:50;10.13;;;4.03;;
19482;SDS011;9882;51.166;6.992;2024-02-14T17:21:19;6.72;;;3.50;;
19482;SDS011;9882;51.166;6.992;2024-02-14T17:23:54;5.47;;;3.40;;
19482;SDS011;9882;51.166;6.992;2024-02-14T17:26:23;5.70;;;3.20;;
19482;SDS011;9882;51.166;6.992;2024-02-14T17:28:53;10.18;;;3.42;;
19482;SDS011;9882;51.166;6.992;2024-02-14T17:31:22;7.93;;;3.75;;
19482;SDS011;9882;51.166;6.992;2024-02-14T17:33:51;10.65;;;4.00;;
19482;SDS011;9882;51.166;6.992;2024-02-14T17:36:22;5.50;;;3.20;;
19482;SDS011;9882;51.166;6.992;2024-02-14T17:38:53;8.00;;;3.45;;
19482;SDS011;9882;51.166;6.992;2024-02-14T17:41:25;6.15;;;2.78;;
19482;SDS011;9882;51.166;6.992;2024-02-14T17:43:54;6.95;;;3.05;;
19482;SDS011;9882;51.166;6.992;2024-02-14T17:46:23;4.20;;;3.10;;
19482;SDS011;9882;51.166;6.992;2024-02-14T17:48:52;6.55;;;3.35;;
19482;SDS011;9882;51.166;6.992;2024-02-14T17:51:23;6.80;;;3.58;;
19482;SDS011;9882;51.166;6.992;2024-02-14T17:53:55;6.65;;;3.55;;
19482;SDS011;9882;51.166;6.992;2024-02-14T17:56:24;11.27;;;3.70;;
19482;SDS011;9882;51.166;6.992;2024-02-14T17:58:53;4.15;;;2.85;;